Time;durP1;ratioP1;P1;durP2;ratioP2;P2;SDS_P1;SDS_P2;PMS_P1;PMS_P2;Temp;Humidity;BMP_temperature;BMP_pressure;BME280_temperature;BME280_humidity;BME280_pressure;Samples;Min_cycle;Max_cycle;Signal;HPM_P1;HPM_P2
2021/11/01 00:00:16;;;;;;;376.80;355.33;;;11.30;99.90;;;;;;5019763;28;20166;-82
2021/11/01 00:02:43;;;;;;;375.15;353.73;;;11.30;99.90;;;;;;5019741;28;20248;-82
2021/11/01 00:05:09;;;;;;;379.15;357.52;;;11.30;99.90;;;;;;5018462;28;20174;-82
2021/11/01 00:07:37;;;;;;;380.13;358.63;;;11.30;99.90;;;;;;5019642;28;20248;-82
2021/11/01 00:10:04;;;;;;;372.23;351.23;;;11.20;99.90;;;;;;5018224;28;20202;-82
2021/11/01 00:12:30;;;;;;;358.05;337.48;;;11.20;99.90;;;;;;5019106;28;20177;-82
2021/11/01 00:15:05;;;;;;;339.63;319.60;;;11.20;99.90;;;;;;5019589;28;20169;-82
2021/11/01 00:17:31;;;;;;;348.70;328.55;;;11.10;99.90;;;;;;5019284;28;20146;-82
2021/11/01 00:19:57;;;;;;;383.20;362.20;;;11.10;99.90;;;;;;5019100;28;20157;-82
2021/11/01 00:22:23;;;;;;;400.60;378.03;;;11.00;99.90;;;;;;5019679;28;20518;-82
2021/11/01 00:24:49;;;;;;;394.60;372.65;;;11.00;99.90;;;;;;5017846;28;20165;-82
2021/11/01 00:27:16;;;;;;;367.88;347.25;;;11.00;99.90;;;;;;5019123;28;20169;-82
2021/11/01 00:29:42;;;;;;;380.33;359.25;;;11.00;99.90;;;;;;5018782;28;20565;-82
2021/11/01 00:32:08;;;;;;;394.95;372.60;;;11.00;99.90;;;;;;5017730;28;20262;-82
2021/11/01 00:34:34;;;;;;;368.27;347.87;;;11.00;99.90;;;;;;5018766;28;20253;-82
2021/11/01 00:37:00;;;;;;;370.33;350.08;;;10.90;99.90;;;;;;5090560;22;20616;-79
2021/11/01 00:39:26;;;;;;;388.30;367.33;;;10.90;99.90;;;;;;5038598;28;20197;-79
2021/11/01 00:41:51;;;;;;;372.70;352.20;;;10.90;99.90;;;;;;5038289;28;20196;-79
2021/11/01 00:44:18;;;;;;;408.43;386.20;;;10.80;99.90;;;;;;5038739;28;20648;-79
2021/11/01 00:46:43;;;;;;;370.60;350.70;;;10.70;99.90;;;;;;5020617;28;20204;-79
2021/11/01 00:49:09;;;;;;;400.13;378.40;;;10.70;99.90;;;;;;5039662;28;20196;-79
2021/11/01 00:51:38;;;;;;;375.67;355.42;;;10.70;99.90;;;;;;5039730;28;20625;-79
2021/11/01 00:54:04;;;;;;;378.73;357.98;;;10.70;99.90;;;;;;5038511;28;20157;-79
2021/11/01 00:56:30;;;;;;;354.75;334.58;;;10.70;99.90;;;;;;5038277;28;20165;-79
2021/11/01 00:58:56;;;;;;;364.13;343.87;;;10.70;99.90;;;;;;5037660;28;20192;-79
2021/11/01 01:01:22;;;;;;;364.48;343.92;;;10.70;99.90;;;;;;5020980;28;20177;-79
2021/11/01 01:03:50;;;;;;;354.97;334.70;;;10.70;99.90;;;;;;5038578;28;20166;-79
2021/11/01 01:06:16;;;;;;;367.55;347.00;;;10.70;99.90;;;;;;5038469;28;20424;-79
2021/11/01 01:08:42;;;;;;;328.07;309.23;;;10.70;99.90;;;;;;5037917;28;20224;-79
2021/11/01 01:11:08;;;;;;;316.58;297.73;;;10.70;99.90;;;;;;5038010;28;20405;-79
2021/11/01 01:13:38;;;;;;;284.60;267.52;;;10.80;99.90;;;;;;5020368;28;20165;-79
2021/11/01 01:16:23;;;;;;;252.00;234.90;;;10.80;99.90;;;;;;5038048;28;20146;-79
2021/11/01 01:18:52;;;;;;;248.15;231.55;;;10.70;99.90;;;;;;5037672;28;20182;-79
2021/11/01 01:24:03;;;;;;;275.75;258.23;;;10.70;99.90;;;;;;5037808;28;20207;-79
2021/11/01 01:26:30;;;;;;;288.48;270.50;;;10.80;99.90;;;;;;5038855;28;20226;-79
2021/11/01 01:28:56;;;;;;;315.92;297.27;;;10.90;99.90;;;;;;5038553;28;20196;-79
2021/11/01 01:31:23;;;;;;;353.20;333.55;;;10.90;99.90;;;;;;5037836;28;20165;-78
2021/11/01 01:33:49;;;;;;;375.17;354.08;;;10.90;99.90;;;;;;5037305;28;20632;-78
2021/11/01 01:36:15;;;;;;;359.03;339.03;;;10.90;99.90;;;;;;5037123;28;20173;-78
2021/11/01 01:38:41;;;;;;;403.08;381.30;;;10.90;99.90;;;;;;5037014;28;20208;-79
2021/11/01 01:41:21;;;;;;;393.50;371.45;;;10.90;99.90;;;;;;5019416;28;20256;-78
2021/11/01 01:43:52;;;;;;;416.35;393.92;;;10.80;99.90;;;;;;5038169;28;20153;-78
2021/11/01 01:46:19;;;;;;;359.98;339.55;;;10.80;99.90;;;;;;5019273;28;20260;-78
2021/11/01 01:48:45;;;;;;;334.00;314.40;;;10.80;99.90;;;;;;5019046;28;20647;-80
2021/11/01 01:51:10;;;;;;;385.67;363.77;;;10.80;99.90;;;;;;5036827;28;20157;-79
2021/11/01 01:53:37;;;;;;;355.83;334.93;;;10.70;99.90;;;;;;5037662;28;20168;-79
2021/11/01 01:56:04;;;;;;;375.55;354.83;;;10.60;99.90;;;;;;5037375;28;20730;-79
2021/11/01 01:58:35;;;;;;;381.15;358.95;;;10.60;99.90;;;;;;5036616;28;20243;-79
2021/11/01 02:01:10;;;;;;;332.15;312.55;;;10.60;99.90;;;;;;5018843;28;20192;-79
2021/11/01 02:03:38;;;;;;;349.63;329.52;;;10.60;99.90;;;;;;5037405;28;20149;-79
2021/11/01 02:06:12;;;;;;;368.65;347.73;;;10.60;99.90;;;;;;5036646;28;20157;-79
2021/11/01 02:08:56;;;;;;;341.98;322.33;;;10.50;99.90;;;;;;5036360;28;20203;-79
2021/11/01 02:11:30;;;;;;;378.98;358.17;;;10.50;99.90;;;;;;5035953;28;20150;-79
2021/11/01 02:13:58;;;;;;;390.88;369.75;;;10.40;99.90;;;;;;5036371;28;20167;-79
2021/11/01 02:16:28;;;;;;;387.17;366.10;;;10.40;99.90;;;;;;5018718;28;20234;-79
2021/11/01 02:18:55;;;;;;;425.38;402.17;;;10.40;99.90;;;;;;5018604;28;20195;-79
2021/11/01 02:21:53;;;;;;;363.58;343.58;;;10.30;99.90;;;;;;5035955;28;20186;-79
2021/11/01 02:24:28;;;;;;;397.10;375.70;;;10.30;99.90;;;;;;5018241;28;20506;-79
2021/11/01 02:26:54;;;;;;;386.10;364.88;;;10.40;99.90;;;;;;5036223;28;20153;-79
2021/11/01 02:29:23;;;;;;;389.70;367.70;;;10.30;99.90;;;;;;5018379;28;20289;-79
2021/11/01 02:31:50;;;;;;;379.75;358.73;;;10.20;99.90;;;;;;5036242;28;20936;-78
2021/11/01 02:34:18;;;;;;;391.52;370.15;;;10.20;99.90;;;;;;5017744;28;20173;-79
2021/11/01 02:36:45;;;;;;;358.35;338.00;;;10.20;99.90;;;;;;5018911;28;20180;-78
2021/11/01 02:39:12;;;;;;;353.85;334.17;;;10.20;99.90;;;;;;5018669;28;20240;-79
2021/11/01 02:41:41;;;;;;;306.25;288.65;;;10.20;99.90;;;;;;5035996;28;20169;-79
2021/11/01 02:44:08;;;;;;;348.10;328.20;;;10.10;99.90;;;;;;5036315;28;20171;-80
2021/11/01 02:46:33;;;;;;;319.08;300.95;;;10.10;99.90;;;;;;5036195;28;20173;-80
2021/11/01 02:49:00;;;;;;;288.43;271.00;;;10.10;99.90;;;;;;5035788;28;20203;-79
2021/11/01 02:51:27;;;;;;;291.35;273.63;;;10.10;99.90;;;;;;5017338;28;20223;-78
2021/11/01 02:53:54;;;;;;;285.40;267.30;;;10.00;99.90;;;;;;5017887;28;20510;-80
2021/11/01 02:56:20;;;;;;;252.75;236.25;;;10.00;99.90;;;;;;5035864;28;20231;-80
2021/11/01 02:58:46;;;;;;;284.20;267.17;;;10.00;99.90;;;;;;5017901;28;20193;-79
2021/11/01 03:01:15;;;;;;;250.80;234.82;;;10.00;99.90;;;;;;5036029;28;20241;-80
2021/11/01 03:03:43;;;;;;;258.58;242.20;;;10.00;99.90;;;;;;5035100;28;20724;-79
2021/11/01 03:06:09;;;;;;;271.48;254.20;;;10.00;99.90;;;;;;5035201;28;20176;-79
2021/11/01 03:08:36;;;;;;;262.13;245.77;;;10.00;99.90;;;;;;5035336;28;20546;-79
2021/11/01 03:11:03;;;;;;;293.55;276.23;;;10.00;99.90;;;;;;5035147;28;20159;-79
2021/11/01 03:13:31;;;;;;;266.25;248.55;;;10.00;99.90;;;;;;5035428;28;20220;-80
2021/11/01 03:15:58;;;;;;;321.55;303.50;;;10.00;99.90;;;;;;5035381;28;20632;-79
2021/11/01 03:18:31;;;;;;;333.05;314.55;;;10.00;99.90;;;;;;5035313;28;20231;-79
2021/11/01 03:20:58;;;;;;;349.30;329.25;;;10.00;99.90;;;;;;5017674;28;20231;-80
2021/11/01 03:23:30;;;;;;;309.27;290.95;;;10.00;99.90;;;;;;5034868;28;20169;-79
2021/11/01 03:26:03;;;;;;;313.75;295.85;;;9.90;99.90;;;;;;5035102;28;20171;-80
2021/11/01 03:28:34;;;;;;;335.20;316.17;;;9.90;99.90;;;;;;5017245;28;20205;-79
2021/11/01 03:31:03;;;;;;;319.75;301.15;;;9.90;99.90;;;;;;5017821;28;20236;-79
2021/11/01 03:33:37;;;;;;;314.88;297.02;;;9.90;99.90;;;;;;5035219;28;20248;-79
2021/11/01 03:36:04;;;;;;;289.75;272.25;;;9.80;99.90;;;;;;5035491;28;20164;-79
2021/11/01 03:38:31;;;;;;;271.75;255.23;;;9.80;99.90;;;;;;5035521;28;20205;-79
2021/11/01 03:40:58;;;;;;;274.83;258.23;;;9.70;99.90;;;;;;5017316;28;20667;-79
2021/11/01 03:43:30;;;;;;;262.17;244.73;;;9.70;99.90;;;;;;5034950;28;20641;-80
2021/11/01 03:45:59;;;;;;;244.15;228.45;;;9.70;99.90;;;;;;5035118;28;20179;-80
2021/11/01 03:48:27;;;;;;;242.82;227.07;;;9.70;99.90;;;;;;5035101;28;20534;-79
2021/11/01 03:51:11;;;;;;;248.13;232.40;;;9.70;99.90;;;;;;5017089;28;20172;-79
2021/11/01 03:53:39;;;;;;;230.60;215.63;;;9.70;99.90;;;;;;5017359;28;20153;-79
2021/11/01 03:56:06;;;;;;;241.27;225.95;;;9.60;99.90;;;;;;5035476;28;20169;-79
2021/11/01 03:58:33;;;;;;;257.77;242.00;;;9.60;99.90;;;;;;5034777;28;20207;-79
2021/11/01 04:00:59;;;;;;;227.57;212.32;;;9.60;99.90;;;;;;5035174;28;20166;-79
2021/11/01 04:03:27;;;;;;;234.77;219.47;;;9.60;99.90;;;;;;5035190;28;20169;-79
2021/11/01 04:06:02;;;;;;;211.10;196.80;;;9.50;99.90;;;;;;5017239;28;20431;-79
2021/11/01 04:08:28;;;;;;;251.77;235.73;;;9.50;99.90;;;;;;5017286;28;20194;-79
2021/11/01 04:10:54;;;;;;;246.18;230.38;;;9.40;99.90;;;;;;5035271;28;20169;-79
2021/11/01 04:13:21;;;;;;;230.47;214.63;;;9.40;99.90;;;;;;5036355;28;20253;-79
2021/11/01 04:15:56;;;;;;;232.75;217.23;;;9.40;99.90;;;;;;5035199;28;20157;-79
2021/11/01 04:18:30;;;;;;;245.73;229.77;;;9.30;99.90;;;;;;5034539;28;20181;-79
2021/11/01 04:20:56;;;;;;;266.92;249.93;;;9.30;99.90;;;;;;5035194;28;20156;-79
2021/11/01 04:23:30;;;;;;;246.80;230.73;;;9.40;99.90;;;;;;5017239;28;20169;-79
2021/11/01 04:25:59;;;;;;;241.63;226.27;;;9.40;99.90;;;;;;5034943;28;20612;-79
2021/11/01 04:28:25;;;;;;;218.13;202.98;;;9.30;99.90;;;;;;5035186;28;20538;-79
2021/11/01 04:30:56;;;;;;;285.20;267.27;;;9.30;99.90;;;;;;5034915;28;20160;-79
2021/11/01 04:33:24;;;;;;;308.67;290.17;;;9.30;99.90;;;;;;5036138;28;20463;-79
2021/11/01 04:35:50;;;;;;;278.58;261.20;;;9.20;99.90;;;;;;5020519;28;20169;-79
2021/11/01 04:38:32;;;;;;;268.63;252.27;;;9.20;99.90;;;;;;5020185;28;20226;-80
2021/11/01 04:54:26;;;;;;;225.23;209.60;;;9.20;99.90;;;;;;5038080;28;20663;-79
2021/11/01 04:56:51;;;;;;;269.17;252.73;;;9.20;99.90;;;;;;5019964;28;20169;-79
2021/11/01 04:59:18;;;;;;;239.47;223.70;;;9.20;99.90;;;;;;5020356;28;20204;-79
2021/11/01 05:01:48;;;;;;;235.48;220.15;;;9.20;99.90;;;;;;5038244;28;20231;-79
2021/11/01 05:04:21;;;;;;;214.80;199.88;;;9.20;99.90;;;;;;5038551;28;20594;-79
2021/11/01 05:06:56;;;;;;;202.55;188.23;;;9.20;99.90;;;;;;5020478;28;20169;-79
2021/11/01 05:09:27;;;;;;;214.38;199.38;;;9.20;99.90;;;;;;5037440;28;20185;-79
2021/11/01 05:14:24;;;;;;;214.77;200.13;;;9.20;99.90;;;;;;5038094;28;20668;-79
2021/11/01 05:19:39;;;;;;;220.35;205.38;;;9.30;99.90;;;;;;5037734;28;20204;-80
2021/11/01 05:22:29;;;;;;;249.25;233.00;;;9.30;99.90;;;;;;5038089;28;20160;-80
2021/11/01 05:24:59;;;;;;;209.57;195.07;;;9.30;99.90;;;;;;5037201;28;20521;-79
2021/11/01 05:30:04;;;;;;;357.73;336.98;;;9.40;99.90;;;;;;5037851;28;20651;-80
2021/11/01 05:32:32;;;;;;;342.45;322.88;;;9.40;99.90;;;;;;5038017;28;20149;-79
2021/11/01 05:34:58;;;;;;;309.25;291.60;;;9.40;99.90;;;;;;5019287;28;20220;-80
2021/11/01 05:37:23;;;;;;;294.40;276.77;;;9.50;99.90;;;;;;5037184;28;20173;-79
2021/11/01 05:39:50;;;;;;;358.17;337.70;;;9.50;99.90;;;;;;5037370;28;20185;-79
2021/11/01 05:42:15;;;;;;;282.90;266.05;;;9.50;99.90;;;;;;5036871;28;20168;-79
2021/11/01 05:44:41;;;;;;;298.73;281.50;;;9.50;99.90;;;;;;5036034;28;20173;-79
2021/11/01 05:47:11;;;;;;;262.33;246.00;;;9.60;99.90;;;;;;5019100;28;20500;-79
2021/11/01 05:49:38;;;;;;;258.42;242.18;;;9.50;99.90;;;;;;5019089;28;20204;-79
2021/11/01 05:52:13;;;;;;;302.52;284.42;;;9.50;99.90;;;;;;5019205;28;20169;-79
2021/11/01 05:54:39;;;;;;;282.70;265.20;;;9.50;99.90;;;;;;5036420;28;20506;-79
2021/11/01 06:02:40;;;;;;;211.23;196.48;;;9.50;99.90;;;;;;5036954;28;20172;-79
2021/11/01 06:05:16;;;;;;;251.80;235.68;;;9.50;99.90;;;;;;5019087;28;20196;-79
2021/11/01 06:16:02;;;;;;;224.30;208.60;;;9.50;99.90;;;;;;4994934;28;20170;-79
2021/11/01 06:21:00;;;;;;;254.70;238.80;;;9.50;99.90;;;;;;5035992;28;20200;-79
2021/11/01 06:23:25;;;;;;;248.67;232.73;;;9.50;99.90;;;;;;5036014;28;20617;-79
2021/11/01 06:25:51;;;;;;;247.77;231.50;;;9.50;99.90;;;;;;5036419;28;20972;-79
2021/11/01 06:28:18;;;;;;;188.90;174.80;;;9.60;99.90;;;;;;5017996;28;20197;-79
2021/11/01 06:30:52;;;;;;;199.98;185.60;;;9.50;99.90;;;;;;5035698;28;20227;-79
2021/11/01 06:33:38;;;;;;;219.75;203.95;;;9.40;99.90;;;;;;5018384;28;20158;-79
2021/11/01 06:42:06;;;;;;;269.55;252.75;;;9.50;99.90;;;;;;5024930;28;20227;-84
2021/11/01 06:50:10;;;;;;;385.08;363.73;;;9.50;99.90;;;;;;5036719;28;20561;-83
2021/11/01 06:53:12;;;;;;;368.95;348.65;;;9.60;99.90;;;;;;5035264;28;20157;-84
2021/11/01 06:55:59;;;;;;;299.50;281.65;;;9.60;99.90;;;;;;5035740;28;20170;-83
2021/11/01 07:23:06;;;;;;;317.08;298.65;;;9.60;99.90;;;;;;5035633;28;20141;-83
2021/11/01 09:05:32;;;;;;;111.68;99.85;;;11.20;99.90;;;;;;5038511;28;20179;-83
2021/11/01 09:26:42;;;;;;;103.82;92.70;;;11.70;99.90;;;;;;5037379;28;20153;-83
2021/11/01 09:42:08;;;;;;;75.25;26.02;;;12.00;99.90;;;;;;5038415;28;20264;-83
2021/11/01 09:44:35;;;;;;;76.85;28.10;;;12.20;99.90;;;;;;5038526;28;20170;-83
2021/11/01 09:47:04;;;;;;;76.20;24.33;;;12.20;99.90;;;;;;5037937;28;20186;-83
2021/11/01 09:49:31;;;;;;;78.38;20.85;;;12.40;99.90;;;;;;5036852;28;20227;-83
2021/11/01 09:51:59;;;;;;;74.28;20.58;;;12.50;99.90;;;;;;5038491;28;20633;-84
2021/11/01 09:54:29;;;;;;;72.43;21.80;;;12.60;99.90;;;;;;5037457;28;20195;-83
2021/11/01 09:57:04;;;;;;;73.68;23.63;;;12.90;99.90;;;;;;5037479;28;20162;-84
2021/11/01 09:59:39;;;;;;;75.18;30.88;;;13.00;99.90;;;;;;5036806;28;20185;-83
2021/11/01 10:02:17;;;;;;;79.53;36.92;;;12.80;99.90;;;;;;5036821;28;20637;-84
2021/11/01 10:04:45;;;;;;;79.90;40.28;;;12.90;99.90;;;;;;5040045;28;20228;-83
2021/11/01 10:09:43;;;;;;;71.07;17.70;;;13.10;99.90;;;;;;5040054;28;20197;-83
2021/11/01 10:12:18;;;;;;;73.63;17.77;;;13.10;99.90;;;;;;5039497;28;20146;-83
2021/11/01 10:17:34;;;;;;;69.88;16.70;;;13.00;99.90;;;;;;5037284;28;20159;-83
2021/11/01 10:18:03;;;;;;;74.10;16.27;;;13.00;99.90;;;;;;5037092;28;20199;-83
2021/11/01 10:20:35;;;;;;;70.72;14.68;;;13.10;99.90;;;;;;5038561;28;20141;-83
2021/11/01 10:23:01;;;;;;;69.80;15.30;;;13.10;99.20;;;;;;5037258;28;20169;-83
2021/11/01 10:25:27;;;;;;;70.60;15.93;;;13.30;99.90;;;;;;5038489;28;20164;-82
2021/11/01 10:27:57;;;;;;;72.70;15.30;;;13.30;94.40;;;;;;5036793;28;20185;-82
2021/11/01 10:30:30;;;;;;;72.40;11.00;;;13.40;92.60;;;;;;5036683;28;20161;-83
2021/11/01 10:32:58;;;;;;;71.35;14.30;;;13.40;96.30;;;;;;5038027;28;20150;-83
2021/11/01 10:35:29;;;;;;;73.53;13.63;;;13.50;95.80;;;;;;5037632;28;20168;-83
2021/11/01 10:38:28;;;;;;;72.60;17.50;;;13.70;97.00;;;;;;5036684;28;20322;-84
2021/11/01 11:37:56;;;;;;;68.40;11.30;;;14.20;70.00;;;;;;5036769;28;20438;-82
2021/11/01 11:48:33;;;;;;;77.93;27.87;;;14.50;64.00;;;;;;5040775;28;20494;-83
2021/11/01 11:51:08;;;;;;;68.90;16.10;;;14.30;60.30;;;;;;5041023;28;20718;-82
2021/11/01 11:53:34;;;;;;;73.77;29.83;;;14.30;67.60;;;;;;5040676;28;20476;-82
2021/11/01 11:56:08;;;;;;;76.80;25.10;;;14.30;60.70;;;;;;5040269;28;20945;-82
2021/11/01 11:58:43;;;;;;;70.43;21.17;;;14.10;59.50;;;;;;5040728;28;20423;-83
2021/11/01 12:01:34;;;;;;;74.77;27.77;;;14.30;63.10;;;;;;5040676;28;20445;-82
2021/11/01 12:04:24;;;;;;;74.90;28.33;;;14.20;56.50;;;;;;5040649;28;20497;-82
2021/11/01 12:07:02;;;;;;;71.53;24.57;;;14.20;55.00;;;;;;5039798;28;20410;-82
2021/11/01 12:09:43;;;;;;;74.40;28.00;;;14.20;60.00;;;;;;5040028;28;20962;-82
2021/11/01 12:17:30;;;;;;;69.23;14.23;;;14.40;54.30;;;;;;5039769;28;20442;-82
2021/11/01 12:20:09;;;;;;;68.80;11.80;;;14.50;56.40;;;;;;5038893;28;20188;-83
2021/11/01 12:22:38;;;;;;;69.27;10.33;;;14.40;54.00;;;;;;5040616;28;20403;-82
2021/11/01 12:25:07;;;;;;;68.60;11.77;;;14.40;53.30;;;;;;5040285;28;20408;-82
2021/11/01 12:27:37;;;;;;;72.23;10.37;;;14.30;51.10;;;;;;5040198;28;20407;-82
2021/11/01 12:30:06;;;;;;;73.07;12.17;;;14.20;54.20;;;;;;5039141;28;20428;-82
2021/11/01 12:32:35;;;;;;;69.77;11.47;;;14.10;53.50;;;;;;5039857;28;20404;-82
2021/11/01 12:35:05;;;;;;;69.67;12.87;;;14.10;51.50;;;;;;5038412;28;20930;-83
2021/11/01 12:40:13;;;;;;;69.07;9.90;;;14.00;49.90;;;;;;5047074;28;20415;-81
2021/11/01 12:58:38;;;;;;;70.18;12.57;;;14.00;48.10;;;;;;5044465;28;20491;-80
2021/11/01 13:01:10;;;;;;;67.00;9.77;;;14.00;47.70;;;;;;5047583;28;20168;-81
2021/11/01 13:03:36;;;;;;;68.63;14.68;;;14.00;49.00;;;;;;5047508;28;20423;-80
2021/11/01 13:06:07;;;;;;;71.00;10.90;;;14.00;45.70;;;;;;5046440;28;20238;-80
2021/11/01 13:08:43;;;;;;;66.30;8.80;;;14.00;48.00;;;;;;5047322;28;20444;-80
2021/11/01 13:19:11;;;;;;;69.18;16.95;;;14.00;40.70;;;;;;5044899;28;20423;-81
2021/11/01 13:21:53;;;;;;;68.80;17.40;;;14.00;46.40;;;;;;5046963;28;20212;-80
2021/11/01 13:24:22;;;;;;;68.97;11.80;;;14.00;38.80;;;;;;5047332;28;20391;-80
2021/11/01 13:26:57;;;;;;;68.70;11.80;;;14.00;42.80;;;;;;5045415;28;20815;-80
2021/11/01 13:35:26;;;;;;;67.17;9.07;;;14.00;48.00;;;;;;4992629;28;20403;-80
2021/11/01 13:38:09;;;;;;;68.40;10.23;;;14.00;44.40;;;;;;5046490;28;20434;-82
2021/11/01 13:40:46;;;;;;;68.47;14.17;;;14.00;44.40;;;;;;5045843;28;20814;-83
2021/11/01 13:43:11;;;;;;;68.10;10.50;;;13.90;40.10;;;;;;5044498;28;20593;-82
2021/11/01 13:45:49;;;;;;;68.80;10.43;;;13.90;42.10;;;;;;5044103;28;20404;-81
2021/11/01 13:48:25;;;;;;;76.07;21.60;;;13.80;39.10;;;;;;5044126;28;20529;-81
2021/11/01 13:51:02;;;;;;;69.47;17.77;;;13.80;45.10;;;;;;5044809;28;20499;-81
2021/11/01 13:53:32;;;;;;;67.90;12.20;;;13.90;47.10;;;;;;5042623;28;20900;-81
2021/11/01 13:56:29;;;;;;;74.18;24.08;;;13.90;40.20;;;;;;5046081;28;20411;-79
2021/11/01 13:58:58;;;;;;;73.75;11.55;;;13.90;44.30;;;;;;5040351;28;20196;-84
2021/11/01 14:01:42;;;;;;;70.53;9.73;;;13.90;39.90;;;;;;5042207;28;20164;-84
2021/11/01 15:17:02;;;;;;;69.65;13.25;;;13.80;46.50;;;;;;5039816;28;20376;-84
2021/11/01 16:16:16;;;;;;;69.90;8.00;;;12.60;91.00;;;;;;5022284;28;20388;-85
2021/11/01 16:18:46;;;;;;;67.87;10.43;;;12.50;91.60;;;;;;5022480;28;20189;-85
2021/11/01 16:21:16;;;;;;;67.85;11.85;;;12.40;94.70;;;;;;5022635;28;20409;-85
2021/11/01 16:23:42;;;;;;;69.63;9.50;;;12.20;94.60;;;;;;5021124;28;20208;-85
2021/11/01 16:28:41;;;;;;;68.63;9.07;;;12.10;98.90;;;;;;5022233;28;20198;-86
2021/11/01 16:33:55;;;;;;;68.13;8.52;;;12.00;99.90;;;;;;5027306;28;20146;-85
2021/11/01 16:36:48;;;;;;;69.05;8.18;;;11.90;98.90;;;;;;5025976;28;20241;-85
2021/11/01 16:39:26;;;;;;;67.07;8.50;;;11.90;99.90;;;;;;5025462;28;20213;-85
2021/11/01 16:41:53;;;;;;;69.80;8.00;;;11.90;99.20;;;;;;5025927;28;20158;-85
2021/11/01 16:46:52;;;;;;;69.80;7.20;;;11.70;98.30;;;;;;5024853;28;20646;-85
2021/11/01 16:49:20;;;;;;;67.05;7.30;;;11.80;98.20;;;;;;5026145;28;20213;-85
2021/11/01 16:52:00;;;;;;;68.20;6.30;;;11.80;97.40;;;;;;5027087;28;20162;-85
2021/11/01 16:54:29;;;;;;;70.95;7.88;;;11.70;97.50;;;;;;5026542;28;20173;-85
2021/11/01 17:04:49;;;;;;;69.18;13.32;;;11.60;99.90;;;;;;5028329;28;20209;-85
2021/11/01 17:07:35;;;;;;;70.07;13.95;;;11.60;99.90;;;;;;5029154;28;20670;-85
2021/11/01 18:44:02;;;;;;;79.10;35.80;;;10.00;99.90;;;;;;5039355;28;20156;-86
2021/11/01 18:50:49;;;;;;;79.53;29.77;;;10.00;99.90;;;;;;5037435;28;20627;-86
2021/11/01 18:52:21;;;;;;;75.53;24.98;;;10.00;99.90;;;;;;5014838;28;20169;-86
2021/11/01 18:54:53;;;;;;;82.68;38.45;;;10.00;99.90;;;;;;5036515;28;20170;-86
2021/11/01 18:57:20;;;;;;;82.10;31.45;;;9.90;99.90;;;;;;5036904;28;20688;-86
2021/11/01 18:59:50;;;;;;;85.43;50.33;;;9.90;99.90;;;;;;5037839;28;20224;-86
2021/11/01 19:02:44;;;;;;;88.63;57.20;;;9.80;99.90;;;;;;5037711;28;20164;-86
2021/11/01 20:04:14;;;;;;;75.18;14.60;;;9.20;99.90;;;;;;5036978;28;20610;-86
2021/11/01 21:26:59;;;;;;;166.38;152.20;;;8.70;99.90;;;;;;5039788;28;20149;-87
2021/11/01 21:29:29;;;;;;;146.68;134.07;;;8.70;99.90;;;;;;5038551;28;20189;-86
2021/11/01 21:31:55;;;;;;;169.50;155.82;;;8.70;99.90;;;;;;5038215;28;20178;-86
2021/11/01 21:34:36;;;;;;;186.68;172.40;;;8.70;99.90;;;;;;5038917;28;20192;-87
2021/11/01 21:37:04;;;;;;;161.30;147.57;;;8.70;99.90;;;;;;5037386;28;20177;-87
2021/11/01 21:39:30;;;;;;;142.10;129.50;;;8.80;99.90;;;;;;5038827;28;20302;-86
2021/11/01 21:41:56;;;;;;;187.93;173.25;;;8.70;99.90;;;;;;5039273;28;20177;-87
2021/11/01 21:44:22;;;;;;;174.10;160.02;;;8.70;99.90;;;;;;5021210;28;20269;-87
2021/11/01 21:46:48;;;;;;;170.10;156.93;;;8.70;99.90;;;;;;5038355;28;20169;-87
2021/11/01 21:49:14;;;;;;;145.05;132.18;;;8.70;99.90;;;;;;5038433;28;20447;-87
2021/11/01 21:51:42;;;;;;;156.05;142.85;;;8.80;99.90;;;;;;5038524;28;20174;-87
2021/11/01 22:00:19;;;;;;;190.23;175.83;;;9.00;99.90;;;;;;5038601;28;20257;-87
2021/11/01 22:21:33;;;;;;;209.80;194.10;;;8.90;99.90;;;;;;5037689;28;20273;-87
2021/11/01 22:24:11;;;;;;;151.07;137.45;;;8.90;99.90;;;;;;5035604;28;20264;-86
2021/11/01 22:40:18;;;;;;;138.88;126.35;;;8.90;99.90;;;;;;5037744;28;20571;-87
2021/11/01 22:42:48;;;;;;;116.40;104.43;;;8.90;99.90;;;;;;5037169;28;20157;-87
2021/11/01 22:58:14;;;;;;;113.68;102.00;;;8.70;99.90;;;;;;5037535;28;20267;-86
2021/11/01 23:00:52;;;;;;;105.88;93.63;;;8.70;99.90;;;;;;5036246;28;20549;-87
2021/11/01 23:31:36;;;;;;;115.68;103.88;;;8.80;99.90;;;;;;5037577;28;20151;-87
2021/11/01 23:34:17;;;;;;;104.65;79.72;;;8.90;99.90;;;;;;5037498;28;20153;-87
2021/11/01 23:36:59;;;;;;;100.78;89.90;;;8.90;99.90;;;;;;5035659;28;20161;-86
2021/11/01 23:39:33;;;;;;;91.93;73.68;;;8.90;99.90;;;;;;5034643;28;20290;-86
2021/11/01 23:42:02;;;;;;;99.60;88.78;;;9.00;99.90;;;;;;5036921;28;20168;-86
2021/11/01 23:44:34;;;;;;;108.03;96.85;;;9.00;99.90;;;;;;5035747;28;20171;-87
2021/11/01 23:47:03;;;;;;;102.40;91.53;;;9.10;99.90;;;;;;5035420;28;20256;-86
2021/11/01 23:49:32;;;;;;;105.47;94.07;;;9.10;99.90;;;;;;5035251;28;20193;-87
2021/11/01 23:52:08;;;;;;;148.93;136.70;;;9.20;99.90;;;;;;5035475;28;20264;-87
2021/11/01 23:54:43;;;;;;;157.57;144.90;;;9.20;99.90;;;;;;5036339;28;20566;-87
2021/11/01 23:57:14;;;;;;;159.73;146.98;;;9.20;99.90;;;;;;5036623;28;20188;-87
2021/11/01 23:59:47;;;;;;;172.32;157.52;;;9.10;99.90;;;;;;5035315;28;20189;-87
